Time;durP1;ratioP1;P1;durP2;ratioP2;P2;SDS_P1;SDS_P2;PMS_P1;PMS_P2;Temp;Humidity;BMP_temperature;BMP_pressure;BME280_temperature;BME280_humidity;BME280_pressure;Samples;Min_cycle;Max_cycle;Signal;HPM_P1;HPM_P2
2022/11/14 00:01:57;;;;;;;0.05;0.05;;;4.00;99.90;;;;;;5053391;28;20193;-64
2022/11/14 00:04:23;;;;;;;0.00;0.00;;;4.00;99.90;;;;;;5051874;28;20556;-64
2022/11/14 00:06:48;;;;;;;0.00;0.00;;;4.00;99.90;;;;;;5051830;28;20632;-64
2022/11/14 00:09:14;;;;;;;0.00;0.00;;;4.10;99.90;;;;;;5052674;28;20687;-64
2022/11/14 00:11:39;;;;;;;0.13;0.05;;;4.10;99.90;;;;;;5053067;28;20537;-63
2022/11/14 00:14:05;;;;;;;0.08;0.08;;;4.10;99.90;;;;;;5051719;28;20593;-64
2022/11/14 00:16:30;;;;;;;0.68;0.43;;;4.10;99.90;;;;;;5053461;28;20196;-63
2022/11/14 00:18:56;;;;;;;0.10;0.10;;;4.20;99.90;;;;;;5052901;28;20218;-64
2022/11/14 00:21:21;;;;;;;0.25;0.25;;;4.20;99.90;;;;;;5052884;28;20209;-64
2022/11/14 00:23:47;;;;;;;0.10;0.10;;;4.20;99.90;;;;;;5044531;28;20185;-63
2022/11/14 00:26:12;;;;;;;0.10;0.10;;;4.20;99.90;;;;;;5053193;28;20683;-63
2022/11/14 00:28:38;;;;;;;0.20;0.20;;;4.20;99.90;;;;;;5052942;28;20192;-64
2022/11/14 00:31:04;;;;;;;0.00;0.00;;;4.20;99.90;;;;;;5052603;28;20173;-64
2022/11/14 00:33:29;;;;;;;0.17;0.17;;;4.20;99.90;;;;;;5051919;28;20188;-64
2022/11/14 00:35:56;;;;;;;0.10;0.10;;;4.20;99.90;;;;;;5051426;28;20182;-65
2022/11/14 00:38:22;;;;;;;0.00;0.00;;;4.30;99.90;;;;;;5052659;28;20249;-64
2022/11/14 00:40:48;;;;;;;0.20;0.20;;;4.30;99.90;;;;;;5051614;28;20181;-64
2022/11/14 00:43:13;;;;;;;0.20;0.20;;;4.30;99.90;;;;;;5052672;28;20184;-64
2022/11/14 00:45:43;;;;;;;0.00;0.00;;;4.30;99.90;;;;;;5052825;28;20220;-64
2022/11/14 00:48:08;;;;;;;0.10;0.10;;;4.40;99.90;;;;;;5052808;28;20177;-64
2022/11/14 00:50:34;;;;;;;0.15;0.15;;;4.40;99.90;;;;;;5052642;28;20185;-63
2022/11/14 00:52:59;;;;;;;0.03;0.03;;;4.40;99.90;;;;;;5052810;28;20182;-64
2022/11/14 00:55:25;;;;;;;0.43;0.43;;;4.40;99.90;;;;;;5052290;28;20197;-64
2022/11/14 00:57:50;;;;;;;0.08;0.08;;;4.40;99.90;;;;;;5052017;28;20208;-64
2022/11/14 01:00:16;;;;;;;0.50;0.50;;;4.40;99.90;;;;;;5052442;28;20533;-64
2022/11/14 01:02:42;;;;;;;0.43;0.35;;;4.40;99.90;;;;;;5052445;28;20262;-64
2022/11/14 01:05:07;;;;;;;0.28;0.28;;;4.50;99.90;;;;;;5052398;28;20269;-64
2022/11/14 01:07:33;;;;;;;0.40;0.40;;;4.50;99.90;;;;;;5052161;28;20225;-64
2022/11/14 01:09:58;;;;;;;1.67;0.52;;;4.50;99.90;;;;;;5051110;28;20243;-64
2022/11/14 01:12:24;;;;;;;0.45;0.43;;;4.50;99.90;;;;;;5052266;28;20185;-64
2022/11/14 01:14:49;;;;;;;0.00;0.00;;;4.50;99.90;;;;;;5051674;28;20251;-64
2022/11/14 01:17:15;;;;;;;0.47;0.47;;;4.50;99.90;;;;;;5051671;28;20599;-64
2022/11/14 01:19:40;;;;;;;0.00;0.00;;;4.50;99.90;;;;;;5051486;28;20185;-64
2022/11/14 01:22:06;;;;;;;0.10;0.10;;;4.50;99.90;;;;;;5051930;28;20184;-64
2022/11/14 01:24:32;;;;;;;0.63;0.63;;;4.50;99.90;;;;;;5051773;28;20220;-64
2022/11/14 01:26:58;;;;;;;0.13;0.13;;;4.60;99.90;;;;;;5051863;28;20612;-64
2022/11/14 01:29:24;;;;;;;0.00;0.00;;;4.60;99.90;;;;;;5051511;28;20201;-64
2022/11/14 01:31:49;;;;;;;0.22;0.22;;;4.60;99.90;;;;;;5051627;28;20229;-63
2022/11/14 01:34:15;;;;;;;0.10;0.10;;;4.60;99.90;;;;;;5051653;28;20181;-63
2022/11/14 01:36:41;;;;;;;0.05;0.05;;;4.70;99.90;;;;;;5051175;28;20185;-64
2022/11/14 01:39:07;;;;;;;0.10;0.10;;;4.70;99.90;;;;;;5051721;28;20209;-64
2022/11/14 01:41:32;;;;;;;0.43;0.43;;;4.70;99.90;;;;;;5051630;28;20541;-64
2022/11/14 01:43:58;;;;;;;0.03;0.03;;;4.80;99.90;;;;;;5051385;28;20177;-64
2022/11/14 01:46:29;;;;;;;0.00;0.00;;;4.80;99.90;;;;;;5051365;28;20718;-64
2022/11/14 01:49:03;;;;;;;0.03;0.03;;;4.90;99.90;;;;;;5051434;28;20182;-65
2022/11/14 01:51:37;;;;;;;0.05;0.05;;;4.90;99.90;;;;;;5051548;28;20674;-64
2022/11/14 01:54:11;;;;;;;0.00;0.00;;;4.90;99.90;;;;;;5051082;28;20174;-64
2022/11/14 01:56:45;;;;;;;0.00;0.00;;;4.90;99.90;;;;;;5051301;28;20532;-63
2022/11/14 01:59:19;;;;;;;0.00;0.00;;;5.00;99.90;;;;;;5051175;28;20213;-63
2022/11/14 02:01:47;;;;;;;0.40;0.35;;;5.00;99.90;;;;;;5051814;28;20187;-64
2022/11/14 02:04:19;;;;;;;0.10;0.10;;;5.00;99.90;;;;;;5051347;28;20279;-63
2022/11/14 02:06:46;;;;;;;0.10;0.10;;;5.10;99.90;;;;;;5051704;28;20173;-63
2022/11/14 02:09:12;;;;;;;0.00;0.00;;;5.10;99.90;;;;;;5050517;28;20385;-63
2022/11/14 02:11:42;;;;;;;0.00;0.00;;;5.10;99.90;;;;;;5050807;28;20188;-64
2022/11/14 02:14:08;;;;;;;0.00;0.00;;;5.10;99.90;;;;;;5051221;28;20193;-63
2022/11/14 02:16:33;;;;;;;0.00;0.00;;;5.10;99.90;;;;;;5050893;28;20173;-64
2022/11/14 02:18:59;;;;;;;0.10;0.10;;;5.20;99.90;;;;;;5050568;28;20296;-63
2022/11/14 02:21:25;;;;;;;0.00;0.00;;;5.20;99.90;;;;;;5051188;28;20182;-64
2022/11/14 02:23:50;;;;;;;0.00;0.00;;;5.20;99.90;;;;;;5051249;28;20231;-63
2022/11/14 02:26:17;;;;;;;0.25;0.25;;;5.20;99.90;;;;;;5050894;28;20185;-64
2022/11/14 02:28:43;;;;;;;0.20;0.20;;;5.20;99.90;;;;;;5050904;28;20177;-64
2022/11/14 02:31:09;;;;;;;0.10;0.10;;;5.30;99.90;;;;;;5050773;28;20189;-64
2022/11/14 02:33:34;;;;;;;0.00;0.00;;;5.30;99.90;;;;;;5051020;28;20213;-63
2022/11/14 02:36:00;;;;;;;0.20;0.20;;;5.30;99.90;;;;;;5050629;28;20173;-64
2022/11/14 02:38:25;;;;;;;0.00;0.00;;;5.30;99.90;;;;;;5051042;28;20703;-64
2022/11/14 02:40:51;;;;;;;0.00;0.00;;;5.30;99.90;;;;;;5049325;28;20185;-64
2022/11/14 02:43:16;;;;;;;0.00;0.00;;;5.30;99.90;;;;;;5050276;28;20196;-63
2022/11/14 02:45:42;;;;;;;0.00;0.00;;;5.30;99.90;;;;;;5050515;28;20197;-64
2022/11/14 02:48:07;;;;;;;0.00;0.00;;;5.30;99.90;;;;;;5050577;28;20621;-64
2022/11/14 02:50:33;;;;;;;0.10;0.10;;;5.30;99.90;;;;;;5051378;28;20174;-64
2022/11/14 02:52:58;;;;;;;0.22;0.22;;;5.20;99.90;;;;;;5050567;28;20652;-64
2022/11/14 02:55:24;;;;;;;0.03;0.03;;;5.30;99.90;;;;;;5050814;28;20190;-63
2022/11/14 02:57:49;;;;;;;0.00;0.00;;;5.20;99.90;;;;;;5053221;28;20197;-63
2022/11/14 03:00:16;;;;;;;0.00;0.00;;;5.20;99.90;;;;;;5054196;28;20185;-64
2022/11/14 03:02:41;;;;;;;0.40;0.40;;;5.10;99.90;;;;;;5054609;28;20632;-64
2022/11/14 03:05:07;;;;;;;0.00;0.00;;;5.10;99.90;;;;;;5054420;28;20186;-64
2022/11/14 03:07:33;;;;;;;0.30;0.30;;;5.10;99.90;;;;;;5054447;28;20279;-63
2022/11/14 03:09:58;;;;;;;0.00;0.00;;;5.10;99.90;;;;;;5054716;28;20576;-64
2022/11/14 03:12:24;;;;;;;0.13;0.13;;;5.20;99.90;;;;;;5053248;28;20585;-64
2022/11/14 03:14:49;;;;;;;0.00;0.00;;;5.20;99.90;;;;;;5054461;28;20546;-64
2022/11/14 03:17:15;;;;;;;0.00;0.00;;;5.20;99.90;;;;;;5054639;28;20205;-64
2022/11/14 03:19:40;;;;;;;0.00;0.00;;;5.20;99.90;;;;;;5054285;28;20225;-63
2022/11/14 03:22:06;;;;;;;0.00;0.00;;;5.20;99.90;;;;;;5053125;28;20189;-64
2022/11/14 03:24:31;;;;;;;0.00;0.00;;;5.20;99.90;;;;;;5054342;28;20213;-64
2022/11/14 03:26:57;;;;;;;0.10;0.10;;;5.10;99.90;;;;;;5053799;28;20239;-64
2022/11/14 03:29:22;;;;;;;0.40;0.40;;;5.00;99.90;;;;;;5053755;28;20669;-64
2022/11/14 03:31:48;;;;;;;0.00;0.00;;;4.90;99.90;;;;;;5053929;28;20182;-63
2022/11/14 03:34:13;;;;;;;0.40;0.40;;;4.80;99.90;;;;;;5054104;28;20660;-64
2022/11/14 03:36:39;;;;;;;0.00;0.00;;;4.80;99.90;;;;;;5053906;28;20177;-64
2022/11/14 03:39:05;;;;;;;0.17;0.15;;;4.80;99.90;;;;;;5052715;28;20221;-64
2022/11/14 03:41:31;;;;;;;0.00;0.00;;;4.90;99.90;;;;;;5053508;28;20176;-64
2022/11/14 03:43:56;;;;;;;0.00;0.00;;;4.90;99.90;;;;;;5053431;28;20186;-64
2022/11/14 03:46:23;;;;;;;0.13;0.13;;;4.90;99.90;;;;;;5054005;28;20177;-63
2022/11/14 03:48:48;;;;;;;0.30;0.30;;;4.90;99.90;;;;;;5053695;28;20182;-64
2022/11/14 03:51:14;;;;;;;0.00;0.00;;;4.90;99.90;;;;;;5053818;28;20192;-64
2022/11/14 03:53:39;;;;;;;0.00;0.00;;;4.90;99.90;;;;;;5053759;28;20249;-64
2022/11/14 03:56:05;;;;;;;0.03;0.03;;;5.00;99.90;;;;;;5053888;28;20213;-64
2022/11/14 03:58:31;;;;;;;0.10;0.10;;;5.00;99.90;;;;;;5053508;28;20271;-64
2022/11/14 04:00:56;;;;;;;0.10;0.10;;;5.00;99.90;;;;;;5052329;28;20174;-64
2022/11/14 04:03:23;;;;;;;0.00;0.00;;;5.00;99.90;;;;;;5053075;28;20180;-64
2022/11/14 04:05:49;;;;;;;0.15;0.15;;;5.00;99.90;;;;;;5053355;28;20698;-63
2022/11/14 04:08:14;;;;;;;0.15;0.10;;;5.00;99.90;;;;;;5053016;28;20225;-64
2022/11/14 04:10:40;;;;;;;0.00;0.00;;;5.10;99.90;;;;;;5052079;28;20177;-64
2022/11/14 04:13:06;;;;;;;0.70;0.70;;;5.10;99.90;;;;;;5053037;28;20284;-64
2022/11/14 04:15:32;;;;;;;0.00;0.00;;;5.10;99.90;;;;;;5053625;28;20174;-64
2022/11/14 04:17:57;;;;;;;0.00;0.00;;;5.10;99.90;;;;;;5052882;28;20212;-64
2022/11/14 04:20:23;;;;;;;0.10;0.10;;;5.10;99.90;;;;;;5053291;28;20190;-63
2022/11/14 04:22:48;;;;;;;0.00;0.00;;;5.10;99.90;;;;;;5053091;28;20182;-64
2022/11/14 04:25:14;;;;;;;0.28;0.28;;;5.10;99.90;;;;;;5052662;28;20533;-64
2022/11/14 04:27:39;;;;;;;0.00;0.00;;;5.10;99.90;;;;;;5052891;28;20273;-66
2022/11/14 04:30:06;;;;;;;0.00;0.00;;;5.00;99.90;;;;;;5052966;28;20242;-66
2022/11/14 04:32:31;;;;;;;0.17;0.17;;;5.00;99.90;;;;;;5052350;28;20528;-66
2022/11/14 04:34:57;;;;;;;0.15;0.15;;;5.00;99.90;;;;;;5052728;28;20189;-66
2022/11/14 04:37:22;;;;;;;0.00;0.00;;;5.10;99.90;;;;;;5052839;28;20696;-65
2022/11/14 04:39:48;;;;;;;0.00;0.00;;;5.10;99.90;;;;;;5052985;28;20660;-65
2022/11/14 04:42:13;;;;;;;0.10;0.10;;;5.10;99.90;;;;;;5052773;28;20174;-65
2022/11/14 04:44:39;;;;;;;0.10;0.10;;;5.20;99.90;;;;;;5052946;28;20174;-66
2022/11/14 04:47:05;;;;;;;0.03;0.03;;;5.20;99.90;;;;;;5052451;28;20181;-64
2022/11/14 04:49:30;;;;;;;0.00;0.00;;;5.10;99.90;;;;;;5051854;28;20174;-63
2022/11/14 04:51:56;;;;;;;0.35;0.35;;;5.10;99.90;;;;;;5051425;28;20648;-65
2022/11/14 04:54:21;;;;;;;0.10;0.10;;;5.10;99.90;;;;;;5052332;28;20591;-62
2022/11/14 04:56:48;;;;;;;0.00;0.00;;;5.10;99.90;;;;;;5052256;28;20213;-63
2022/11/14 04:59:13;;;;;;;0.00;0.00;;;5.10;99.90;;;;;;5052053;28;20680;-60
2022/11/14 05:01:39;;;;;;;0.00;0.00;;;5.10;99.90;;;;;;5051979;28;20192;-63
2022/11/14 05:04:04;;;;;;;0.00;0.00;;;5.10;99.90;;;;;;5052249;28;20555;-63
2022/11/14 05:06:30;;;;;;;0.00;0.00;;;5.10;99.90;;;;;;5032634;28;20182;-61
2022/11/14 05:08:55;;;;;;;0.00;0.00;;;5.10;99.90;;;;;;5048449;28;20235;-63
2022/11/14 05:11:21;;;;;;;0.03;0.03;;;5.20;99.90;;;;;;5052323;28;20212;-62
2022/11/14 05:13:47;;;;;;;0.20;0.20;;;5.10;99.90;;;;;;5051321;28;20213;-63
2022/11/14 05:16:13;;;;;;;0.10;0.10;;;5.10;99.90;;;;;;5051582;28;20714;-61
2022/11/14 05:18:38;;;;;;;0.00;0.00;;;5.10;99.90;;;;;;5052128;28;20220;-62
2022/11/14 05:21:04;;;;;;;0.00;0.00;;;5.10;99.90;;;;;;5051835;28;20181;-63
2022/11/14 05:23:30;;;;;;;0.00;0.00;;;5.10;99.90;;;;;;5052381;28;20234;-63
2022/11/14 05:26:01;;;;;;;0.10;0.10;;;5.20;99.90;;;;;;5052299;28;20276;-63
2022/11/14 05:28:26;;;;;;;0.00;0.00;;;5.10;99.90;;;;;;5051079;28;20244;-62
2022/11/14 05:30:52;;;;;;;0.00;0.00;;;5.20;99.90;;;;;;5052195;28;20547;-65
2022/11/14 05:33:17;;;;;;;0.00;0.00;;;5.20;99.90;;;;;;5052217;28;20254;-63
2022/11/14 05:35:43;;;;;;;0.03;0.03;;;5.20;99.90;;;;;;5052253;28;20253;-62
2022/11/14 05:38:08;;;;;;;0.00;0.00;;;5.20;99.90;;;;;;5051899;28;20225;-64
2022/11/14 05:40:35;;;;;;;0.00;0.00;;;5.20;99.90;;;;;;5052232;28;20181;-62
2022/11/14 05:43:01;;;;;;;1.35;0.45;;;5.20;99.90;;;;;;5052009;28;20177;-64
2022/11/14 05:45:26;;;;;;;0.05;0.05;;;5.10;99.90;;;;;;5049943;28;20671;-66
2022/11/14 05:47:55;;;;;;;0.00;0.00;;;5.10;99.90;;;;;;5052047;28;20223;-65
2022/11/14 05:50:21;;;;;;;0.00;0.00;;;5.10;99.90;;;;;;5052079;28;20178;-66
2022/11/14 05:52:46;;;;;;;0.10;0.10;;;5.10;99.90;;;;;;5051945;28;20174;-65
2022/11/14 05:55:12;;;;;;;0.00;0.00;;;5.10;99.90;;;;;;5051863;28;20540;-66
2022/11/14 05:57:37;;;;;;;0.00;0.00;;;5.10;99.90;;;;;;5051873;28;20261;-65
2022/11/14 06:00:04;;;;;;;0.05;0.05;;;5.00;99.90;;;;;;5052032;28;20180;-66
2022/11/14 06:02:29;;;;;;;0.00;0.00;;;5.00;99.90;;;;;;5052059;28;20185;-66
2022/11/14 06:04:55;;;;;;;0.20;0.20;;;5.00;99.90;;;;;;5051961;28;20199;-66
2022/11/14 06:07:20;;;;;;;0.00;0.00;;;5.00;99.90;;;;;;5051846;28;20177;-65
2022/11/14 06:09:46;;;;;;;0.80;0.13;;;4.90;99.90;;;;;;5052030;28;20182;-66
2022/11/14 06:12:12;;;;;;;0.10;0.10;;;4.90;99.90;;;;;;5051868;28;20558;-65
2022/11/14 06:14:37;;;;;;;0.22;0.15;;;4.90;99.90;;;;;;5052287;28;20180;-65
2022/11/14 06:17:03;;;;;;;0.00;0.00;;;4.90;99.90;;;;;;5052021;28;20651;-66
2022/11/14 06:19:28;;;;;;;0.00;0.00;;;4.80;99.90;;;;;;5051607;28;20212;-65
2022/11/14 06:21:54;;;;;;;0.17;0.17;;;4.80;99.90;;;;;;5046944;28;20328;-66
2022/11/14 06:24:19;;;;;;;0.05;0.05;;;4.80;99.90;;;;;;5031774;28;20180;-66
2022/11/14 06:26:45;;;;;;;0.00;0.00;;;4.70;99.90;;;;;;5031752;28;20193;-65
2022/11/14 06:29:10;;;;;;;0.08;0.08;;;4.60;99.90;;;;;;5045587;28;20177;-65
2022/11/14 06:31:36;;;;;;;0.10;0.10;;;4.60;99.90;;;;;;5052089;28;20182;-65
2022/11/14 06:34:04;;;;;;;0.10;0.10;;;4.50;99.90;;;;;;5055652;28;20236;-66
2022/11/14 06:36:30;;;;;;;0.05;0.05;;;4.50;99.90;;;;;;5055743;28;20213;-65
2022/11/14 06:38:55;;;;;;;0.08;0.08;;;4.40;99.90;;;;;;5055549;28;20245;-66
2022/11/14 06:41:22;;;;;;;0.00;0.00;;;4.30;99.90;;;;;;5055556;28;20261;-65
2022/11/14 06:43:50;;;;;;;0.00;0.00;;;4.30;99.90;;;;;;5055592;28;20169;-65
2022/11/14 06:46:18;;;;;;;0.55;0.55;;;4.30;99.90;;;;;;5055435;28;20165;-65
2022/11/14 06:48:45;;;;;;;0.10;0.10;;;4.30;99.90;;;;;;5055376;28;20181;-65
2022/11/14 06:51:12;;;;;;;0.00;0.00;;;4.20;99.90;;;;;;5055318;28;20529;-66
2022/11/14 06:53:38;;;;;;;0.20;0.20;;;4.20;99.90;;;;;;5055132;28;20644;-66
2022/11/14 06:56:05;;;;;;;0.10;0.10;;;4.20;99.90;;;;;;5055273;28;20177;-65
2022/11/14 06:58:34;;;;;;;0.00;0.00;;;4.20;99.90;;;;;;5055289;28;20217;-65
2022/11/14 07:01:11;;;;;;;0.00;0.00;;;4.10;99.90;;;;;;5055112;28;20549;-65
2022/11/14 07:03:36;;;;;;;0.10;0.10;;;4.10;99.90;;;;;;5055234;28;20192;-65
2022/11/14 07:06:03;;;;;;;0.13;0.13;;;4.10;99.90;;;;;;5053649;28;20178;-65
2022/11/14 07:08:29;;;;;;;0.05;0.05;;;4.10;99.90;;;;;;5054737;28;20248;-65
2022/11/14 07:11:06;;;;;;;0.10;0.10;;;4.10;99.90;;;;;;5055138;28;20660;-65
2022/11/14 07:13:32;;;;;;;0.00;0.00;;;4.10;99.90;;;;;;5053633;28;20230;-65
2022/11/14 07:15:58;;;;;;;0.10;0.10;;;4.10;99.90;;;;;;5054707;28;20272;-66
2022/11/14 07:18:24;;;;;;;0.40;0.40;;;4.20;99.90;;;;;;5054777;28;20702;-65
2022/11/14 07:20:56;;;;;;;0.10;0.10;;;4.20;99.90;;;;;;5054724;28;20181;-66
2022/11/14 07:23:21;;;;;;;0.20;0.20;;;4.30;99.90;;;;;;5054650;28;20638;-66
2022/11/14 07:25:47;;;;;;;0.00;0.00;;;4.40;99.90;;;;;;5054664;28;20256;-65
2022/11/14 07:28:13;;;;;;;0.00;0.00;;;4.50;99.90;;;;;;5054594;28;20629;-66
2022/11/14 07:30:38;;;;;;;0.00;0.00;;;4.70;99.90;;;;;;5054577;28;20173;-65
2022/11/14 07:33:04;;;;;;;0.00;0.00;;;4.90;99.90;;;;;;5054544;28;20166;-66
2022/11/14 07:35:29;;;;;;;0.00;0.00;;;5.10;99.90;;;;;;5054613;28;20651;-65
2022/11/14 07:38:01;;;;;;;0.00;0.00;;;5.30;99.90;;;;;;5054527;28;20194;-66
2022/11/14 07:40:27;;;;;;;0.13;0.13;;;5.50;99.90;;;;;;5054521;28;20205;-65
2022/11/14 07:43:00;;;;;;;0.00;0.00;;;5.70;99.90;;;;;;5054070;28;20227;-66
2022/11/14 07:45:27;;;;;;;0.10;0.10;;;6.00;99.90;;;;;;5054443;28;20185;-65
2022/11/14 07:47:54;;;;;;;0.22;0.22;;;6.20;99.90;;;;;;5054256;28;20177;-66
2022/11/14 07:50:20;;;;;;;0.00;0.00;;;6.40;99.90;;;;;;5054097;28;20539;-65
2022/11/14 07:52:50;;;;;;;0.00;0.00;;;6.50;99.90;;;;;;5054268;28;20816;-65
2022/11/14 07:55:15;;;;;;;0.00;0.00;;;6.60;99.90;;;;;;5054192;28;20231;-66
2022/11/14 07:57:41;;;;;;;0.00;0.00;;;6.70;99.90;;;;;;5053901;28;20169;-66
2022/11/14 08:00:07;;;;;;;0.00;0.00;;;6.80;99.90;;;;;;5054008;28;20221;-66
2022/11/14 08:02:32;;;;;;;0.00;0.00;;;7.10;99.90;;;;;;5054143;28;20181;-66
2022/11/14 08:04:58;;;;;;;0.00;0.00;;;7.40;99.90;;;;;;5053929;28;20181;-65
2022/11/14 08:07:24;;;;;;;0.00;0.00;;;7.70;99.90;;;;;;5052695;28;20233;-65
2022/11/14 08:09:49;;;;;;;0.20;0.20;;;8.00;99.90;;;;;;5054027;28;20512;-65
2022/11/14 08:12:15;;;;;;;0.00;0.00;;;8.30;99.90;;;;;;5054035;28;20169;-65
2022/11/14 08:14:40;;;;;;;0.05;0.05;;;8.60;99.90;;;;;;5053925;28;20671;-66
2022/11/14 08:17:06;;;;;;;0.00;0.00;;;8.80;99.90;;;;;;5052713;28;20193;-66
2022/11/14 08:19:31;;;;;;;0.00;0.00;;;9.00;99.90;;;;;;5053702;28;20275;-65
2022/11/14 08:21:57;;;;;;;0.00;0.00;;;9.20;99.90;;;;;;5053395;28;20193;-65
2022/11/14 08:24:22;;;;;;;0.03;0.03;;;9.40;99.90;;;;;;5053723;28;20508;-65
2022/11/14 08:26:48;;;;;;;0.00;0.00;;;9.50;99.90;;;;;;5053759;28;20174;-65
2022/11/14 08:29:13;;;;;;;0.00;0.00;;;9.50;99.90;;;;;;5053411;28;20185;-65
2022/11/14 08:31:39;;;;;;;0.00;0.00;;;9.50;99.90;;;;;;5053595;28;20248;-65
2022/11/14 08:34:04;;;;;;;0.00;0.00;;;9.50;99.90;;;;;;5053496;28;20181;-65
2022/11/14 08:36:30;;;;;;;0.00;0.00;;;9.30;99.90;;;;;;5053491;28;20173;-65
2022/11/14 08:38:55;;;;;;;0.03;0.03;;;9.20;99.90;;;;;;5053334;28;20219;-65
2022/11/14 08:41:21;;;;;;;0.45;0.22;;;9.00;99.90;;;;;;5053286;28;20205;-65
2022/11/14 08:43:46;;;;;;;0.00;0.00;;;8.90;99.90;;;;;;5053362;28;20188;-65
2022/11/14 08:46:12;;;;;;;0.00;0.00;;;8.80;99.90;;;;;;5053210;28;20185;-65
2022/11/14 08:48:37;;;;;;;0.00;0.00;;;8.70;99.90;;;;;;5053310;28;20216;-65
2022/11/14 08:51:06;;;;;;;0.00;0.00;;;8.60;99.90;;;;;;5053162;28;20173;-65
2022/11/14 08:53:33;;;;;;;0.00;0.00;;;8.60;99.90;;;;;;5053257;28;20182;-65
2022/11/14 08:55:58;;;;;;;0.00;0.00;;;8.50;99.90;;;;;;5052119;28;20189;-65
2022/11/14 08:58:28;;;;;;;0.00;0.00;;;8.50;99.90;;;;;;5052951;28;20235;-65
2022/11/14 09:00:57;;;;;;;0.10;0.10;;;8.50;99.90;;;;;;5053023;28;20177;-66
2022/11/14 09:03:23;;;;;;;0.05;0.05;;;8.50;99.90;;;;;;5052947;28;20625;-65
2022/11/14 09:05:52;;;;;;;0.00;0.00;;;8.50;99.90;;;;;;5053014;28;20208;-65
2022/11/14 09:08:17;;;;;;;0.00;0.00;;;8.40;99.90;;;;;;5052602;28;20232;-65
2022/11/14 09:10:44;;;;;;;0.00;0.00;;;8.40;99.90;;;;;;5053169;28;20182;-65
2022/11/14 09:13:09;;;;;;;0.10;0.10;;;8.20;99.90;;;;;;5052677;28;20751;-65
2022/11/14 09:15:35;;;;;;;0.00;0.00;;;8.20;99.90;;;;;;5052774;28;20280;-65
2022/11/14 09:18:00;;;;;;;0.00;0.00;;;8.10;99.90;;;;;;5052604;28;20209;-65
2022/11/14 09:20:29;;;;;;;0.00;0.00;;;8.10;99.90;;;;;;5048018;28;20178;-65
2022/11/14 09:22:57;;;;;;;0.32;0.32;;;8.10;99.90;;;;;;5032682;28;20269;-65
2022/11/14 09:25:23;;;;;;;0.00;0.00;;;8.00;99.90;;;;;;5032716;28;20170;-65
2022/11/14 09:27:48;;;;;;;0.00;0.00;;;7.90;99.90;;;;;;5035202;28;20180;-65
2022/11/14 09:30:14;;;;;;;0.13;0.10;;;8.00;99.90;;;;;;5052488;28;20204;-65
2022/11/14 09:32:39;;;;;;;0.30;0.22;;;8.00;99.90;;;;;;5052445;28;20666;-65
2022/11/14 09:35:05;;;;;;;0.00;0.00;;;8.10;99.90;;;;;;5052352;28;20176;-65
2022/11/14 09:37:31;;;;;;;0.08;0.08;;;8.20;99.90;;;;;;5052387;28;20188;-65
2022/11/14 09:39:56;;;;;;;0.13;0.13;;;8.30;99.90;;;;;;5052335;28;20249;-66
2022/11/14 09:42:48;;;;;;;0.08;0.08;;;8.50;99.90;;;;;;5052296;28;20170;-65
2022/11/14 09:45:16;;;;;;;0.20;0.20;;;8.60;99.90;;;;;;5052222;28;21040;-66
2022/11/14 09:47:48;;;;;;;0.00;0.00;;;8.70;99.90;;;;;;5052323;28;20536;-65
2022/11/14 09:50:34;;;;;;;0.00;0.00;;;8.80;99.90;;;;;;5050930;28;20178;-65
2022/11/14 09:53:10;;;;;;;0.00;0.00;;;8.90;99.90;;;;;;5052167;28;20176;-66
2022/11/14 09:55:36;;;;;;;0.15;0.15;;;9.00;99.90;;;;;;5052285;28;20177;-66
2022/11/14 09:58:03;;;;;;;0.00;0.00;;;9.10;99.90;;;;;;5052035;28;20675;-65
2022/11/14 10:00:44;;;;;;;0.00;0.00;;;9.20;99.90;;;;;;5052204;28;20188;-66
2022/11/14 10:03:45;;;;;;;0.00;0.00;;;9.30;99.90;;;;;;5052137;28;20531;-66
2022/11/14 10:06:21;;;;;;;0.10;0.10;;;9.30;99.90;;;;;;5051418;28;20192;-65
2022/11/14 10:09:11;;;;;;;0.00;0.00;;;9.30;99.90;;;;;;5051903;28;20233;-65
2022/11/14 10:12:05;;;;;;;0.00;0.00;;;9.30;99.90;;;;;;5052042;28;20179;-66
2022/11/14 10:14:51;;;;;;;0.03;0.03;;;9.40;99.90;;;;;;5052185;28;20176;-66
2022/11/14 10:17:50;;;;;;;0.00;0.00;;;9.60;99.90;;;;;;5050482;28;20193;-66
2022/11/14 10:20:34;;;;;;;0.00;0.00;;;9.70;99.90;;;;;;5051742;28;20177;-66
2022/11/14 10:23:24;;;;;;;0.00;0.00;;;9.80;99.90;;;;;;5051779;28;20173;-66
2022/11/14 10:26:10;;;;;;;0.00;0.00;;;9.90;99.90;;;;;;5051980;28;20633;-66
2022/11/14 10:29:12;;;;;;;0.00;0.00;;;9.90;99.90;;;;;;5051857;28;20299;-66
2022/11/14 10:31:50;;;;;;;0.00;0.00;;;10.00;99.90;;;;;;5051300;28;20196;-66
2022/11/14 10:34:28;;;;;;;0.00;0.00;;;10.00;99.90;;;;;;5051740;28;20169;-67
2022/11/14 10:36:56;;;;;;;0.00;0.00;;;10.00;99.90;;;;;;5052022;28;20177;-67
2022/11/14 10:39:40;;;;;;;0.00;0.00;;;10.00;99.90;;;;;;5050373;28;20245;-66
2022/11/14 10:42:14;;;;;;;0.00;0.00;;;10.00;99.90;;;;;;5051767;28;20165;-67
2022/11/14 10:44:55;;;;;;;0.10;0.10;;;10.10;99.90;;;;;;5051616;28;20699;-67
2022/11/14 10:47:23;;;;;;;0.00;0.00;;;10.10;99.90;;;;;;5051647;28;20216;-66
2022/11/14 10:49:54;;;;;;;0.00;0.00;;;10.20;99.90;;;;;;5051699;28;20333;-66
2022/11/14 10:52:25;;;;;;;0.00;0.00;;;10.20;99.90;;;;;;5051623;28;20243;-66
2022/11/14 10:54:58;;;;;;;0.00;0.00;;;10.20;99.90;;;;;;5051645;28;20178;-66
2022/11/14 10:57:24;;;;;;;0.73;0.47;;;10.20;99.90;;;;;;5051651;28;20238;-66
2022/11/14 10:59:52;;;;;;;0.00;0.00;;;10.20;99.90;;;;;;5050147;28;20225;-66
2022/11/14 11:02:17;;;;;;;0.00;0.00;;;10.20;99.90;;;;;;5051406;28;20543;-66
2022/11/14 11:04:44;;;;;;;0.00;0.00;;;10.30;99.90;;;;;;5051550;28;20189;-67
2022/11/14 11:11:28;;;;;;;0.17;0.00;;;10.30;99.90;;;;;;5051328;28;20263;-67
2022/11/14 11:12:48;;;;;;;0.00;0.00;;;10.40;99.90;;;;;;5051501;28;20551;-66
2022/11/14 11:15:22;;;;;;;0.28;0.25;;;10.50;99.90;;;;;;5051465;28;20364;-66
2022/11/14 11:18:03;;;;;;;0.28;0.28;;;10.50;99.90;;;;;;5051873;28;20173;-67
2022/11/14 11:20:34;;;;;;;0.00;0.00;;;10.50;99.90;;;;;;5054982;28;20181;-67
2022/11/14 11:23:22;;;;;;;0.00;0.00;;;10.60;99.90;;;;;;5054947;28;20181;-67
2022/11/14 11:25:59;;;;;;;0.00;0.00;;;10.60;99.90;;;;;;5054846;28;20572;-66
2022/11/14 11:28:24;;;;;;;0.38;0.38;;;10.60;99.90;;;;;;5054873;28;20169;-68
2022/11/14 11:31:01;;;;;;;0.00;0.00;;;10.70;99.90;;;;;;5054824;28;20173;-65
2022/11/14 11:33:29;;;;;;;0.00;0.00;;;10.70;99.90;;;;;;5053491;28;20624;-66
2022/11/14 11:36:12;;;;;;;0.00;0.00;;;10.70;99.90;;;;;;5054713;28;20176;-66
2022/11/14 11:38:39;;;;;;;0.00;0.00;;;10.80;99.90;;;;;;5054637;28;20291;-66
2022/11/14 11:41:26;;;;;;;0.20;0.15;;;10.80;99.90;;;;;;5054494;28;20507;-66
2022/11/14 11:43:59;;;;;;;0.00;0.00;;;10.80;99.90;;;;;;5054559;28;20240;-67
2022/11/14 11:46:55;;;;;;;0.00;0.00;;;10.80;99.90;;;;;;5053277;28;20196;-67
2022/11/14 11:49:43;;;;;;;0.00;0.00;;;10.90;99.90;;;;;;5054373;28;20165;-67
2022/11/14 11:52:16;;;;;;;0.00;0.00;;;10.90;99.90;;;;;;5054353;28;20226;-66
2022/11/14 11:55:13;;;;;;;0.00;0.00;;;11.00;99.90;;;;;;5054364;28;20676;-66
2022/11/14 11:58:03;;;;;;;0.00;0.00;;;11.00;99.90;;;;;;5054244;28;20177;-67
2022/11/14 12:00:29;;;;;;;0.00;0.00;;;11.00;99.90;;;;;;5053907;28;20189;-66
2022/11/14 12:02:55;;;;;;;0.00;0.00;;;11.00;99.90;;;;;;5054132;28;20223;-67
2022/11/14 12:05:32;;;;;;;0.00;0.00;;;11.00;99.90;;;;;;5054058;28;20628;-66
2022/11/14 12:08:05;;;;;;;0.00;0.00;;;11.10;99.90;;;;;;5053913;28;20719;-67
2022/11/14 12:10:39;;;;;;;0.00;0.00;;;11.10;99.90;;;;;;5054100;28;20625;-67
2022/11/14 12:13:25;;;;;;;0.00;0.00;;;11.10;99.90;;;;;;5054039;28;20280;-67
2022/11/14 12:15:56;;;;;;;0.00;0.00;;;11.20;99.90;;;;;;5054016;28;20185;-67
2022/11/14 12:18:35;;;;;;;0.00;0.00;;;11.20;99.90;;;;;;5053886;28;20283;-67
2022/11/14 12:21:31;;;;;;;0.00;0.00;;;11.20;99.90;;;;;;5053669;28;20188;-67
2022/11/14 12:23:59;;;;;;;0.00;0.00;;;11.20;99.90;;;;;;5053781;28;20177;-67
2022/11/14 12:26:37;;;;;;;0.00;0.00;;;11.30;99.90;;;;;;5053745;28;20231;-67
2022/11/14 12:29:24;;;;;;;0.00;0.00;;;11.30;99.90;;;;;;5053516;28;20637;-67
2022/11/14 12:31:57;;;;;;;0.00;0.00;;;11.30;99.90;;;;;;5052418;28;20190;-66
2022/11/14 12:34:44;;;;;;;0.00;0.00;;;11.40;99.90;;;;;;5053809;28;20205;-66
2022/11/14 12:37:14;;;;;;;0.00;0.00;;;11.40;99.90;;;;;;5053652;28;20177;-67
2022/11/14 12:39:40;;;;;;;0.00;0.00;;;11.40;99.90;;;;;;5052316;28;20723;-67
2022/11/14 12:42:13;;;;;;;0.00;0.00;;;11.50;99.90;;;;;;5053341;28;20273;-67
2022/11/14 12:44:39;;;;;;;0.00;0.00;;;11.50;99.90;;;;;;5053312;28;20265;-67
2022/11/14 12:47:04;;;;;;;0.00;0.00;;;11.60;99.90;;;;;;5053337;28;20621;-67
2022/11/14 12:49:52;;;;;;;0.00;0.00;;;11.70;99.90;;;;;;5053385;28;20181;-67
2022/11/14 12:52:39;;;;;;;0.00;0.00;;;12.00;99.90;;;;;;5053201;28;20188;-66
2022/11/14 12:55:24;;;;;;;0.00;0.00;;;12.20;99.90;;;;;;5053202;28;20259;-67
2022/11/14 12:58:08;;;;;;;0.00;0.00;;;12.60;99.90;;;;;;5051858;28;20857;-66
2022/11/14 13:00:58;;;;;;;0.00;0.00;;;12.70;99.90;;;;;;5053163;28;20269;-66
2022/11/14 13:04:04;;;;;;;0.00;0.00;;;12.90;99.90;;;;;;5053164;28;20181;-67
2022/11/14 13:06:44;;;;;;;0.00;0.00;;;12.90;99.90;;;;;;5052940;28;20177;-67
2022/11/14 13:09:32;;;;;;;0.00;0.00;;;13.00;99.90;;;;;;5052772;28;20229;-67